Terminal Aerodrome Forecast
Issued by NWS Cleveland, OH

Home | Current Version | Previous Version | Text Only | Print | Product List | Glossary On
Versions: 1 2 3 4 5 6 7 8 9 10 11 12 13 14 15 16
734
FTUS41 KCLE 110528
TAFCAK
TAF
KCAK 110528Z 1106/1206 20004KT P6SM -SN OVC035
     FM110800 19004KT 2SM -SN OVC025
     FM112300 17012KT 4SM -SN OVC015
     FM120100 19010KT 4SM -RASN OVC007=

USA.gov is the U.S. government's official web portal to all federal, state and local government web resources and services.